createdAt,value
2018-01-14T00:00:12.660Z,25.60
2018-01-14T00:02:40.354Z,24.47
2018-01-14T00:05:08.035Z,23.13
2018-01-14T00:07:35.722Z,26.10
2018-01-14T00:10:04.532Z,26.73
2018-01-14T00:12:32.319Z,27.03
2018-01-14T00:15:00.080Z,26.47
2018-01-14T00:17:27.710Z,29.93
2018-01-14T00:19:55.427Z,25.40
2018-01-14T00:22:23.130Z,24.93
2018-01-14T00:24:50.790Z,25.47
2018-01-14T00:27:18.488Z,27.13
2018-01-14T00:29:47.050Z,28.83
2018-01-14T00:32:14.717Z,26.93
2018-01-14T00:34:42.386Z,25.33
2018-01-14T00:37:10.174Z,27.20
2018-01-14T00:39:39.859Z,28.10
2018-01-14T00:42:07.535Z,27.13
2018-01-14T00:44:35.269Z,28.97
2018-01-14T00:47:02.999Z,29.90
2018-01-14T00:49:30.706Z,29.37
2018-01-14T00:51:58.380Z,27.17
2018-01-14T00:54:26.026Z,27.87
2018-01-14T00:56:53.720Z,29.37
2018-01-14T00:59:22.179Z,30.60
2018-01-14T01:01:49.903Z,28.40
2018-01-14T01:04:18.405Z,28.93
2018-01-14T01:06:46.460Z,29.43
2018-01-14T01:09:14.144Z,31.53
2018-01-14T01:11:41.848Z,28.33
2018-01-14T01:14:10.294Z,30.93
2018-01-14T01:16:38.030Z,30.93
2018-01-14T01:19:05.888Z,27.43
2018-01-14T01:21:33.706Z,31.50
2018-01-14T01:24:01.396Z,31.60
2018-01-14T01:26:29.852Z,30.90
2018-01-14T01:28:57.519Z,31.30
2018-01-14T01:31:25.394Z,29.63
2018-01-14T01:33:53.054Z,31.90
2018-01-14T01:36:20.832Z,30.93
2018-01-14T01:38:49.292Z,31.83
2018-01-14T01:41:17.012Z,31.00
2018-01-14T01:43:44.694Z,31.83
2018-01-14T01:46:12.378Z,30.23
2018-01-14T01:48:40.103Z,32.33
2018-01-14T01:51:07.766Z,32.23
2018-01-14T01:53:35.474Z,30.33
2018-01-14T01:56:03.150Z,31.43
2018-01-14T01:58:30.832Z,30.30
2018-01-14T02:00:59.492Z,32.17
2018-01-14T02:03:27.160Z,30.83
2018-01-14T02:05:54.845Z,31.33
2018-01-14T02:08:22.595Z,30.57
2018-01-14T02:10:50.290Z,31.20
2018-01-14T02:13:17.936Z,30.73
2018-01-14T02:15:46.664Z,31.20
2018-01-14T02:18:14.354Z,30.03
2018-01-14T02:20:42.053Z,31.77
2018-01-14T02:23:10.520Z,30.63
2018-01-14T02:25:38.217Z,31.07
2018-01-14T02:28:05.900Z,32.20
2018-01-14T02:30:34.845Z,31.60
2018-01-14T02:33:02.467Z,31.40
2018-01-14T02:35:30.077Z,30.50
2018-01-14T02:37:57.733Z,33.33
2018-01-14T02:40:25.336Z,31.03
2018-01-14T02:42:52.969Z,30.40
2018-01-14T02:45:21.363Z,32.30
2018-01-14T02:47:49.514Z,32.83
2018-01-14T02:50:17.097Z,30.67
2018-01-14T02:52:44.782Z,32.07
2018-01-14T02:55:12.427Z,31.67
2018-01-14T02:57:40.140Z,32.30
2018-01-14T03:00:08.029Z,31.33
2018-01-14T03:02:35.725Z,31.47
2018-01-14T03:05:03.437Z,33.10
2018-01-14T03:07:31.117Z,31.30
2018-01-14T03:09:58.772Z,29.67
2018-01-14T03:12:26.452Z,30.70
2018-01-14T03:14:54.123Z,29.63
2018-01-14T03:17:21.814Z,27.17
2018-01-14T03:19:49.500Z,29.60
2018-01-14T03:22:17.288Z,26.00
2018-01-14T03:24:44.943Z,30.63
2018-01-14T03:27:12.622Z,30.83
2018-01-14T03:29:41.510Z,31.57
2018-01-14T03:32:09.886Z,31.47
2018-01-14T03:34:37.595Z,29.23
2018-01-14T03:37:05.290Z,28.13
2018-01-14T03:39:32.993Z,31.13
2018-01-14T03:42:00.715Z,27.60
2018-01-14T03:44:28.641Z,28.57
2018-01-14T03:46:56.300Z,29.03
2018-01-14T03:49:24.739Z,25.13
2018-01-14T03:51:52.458Z,28.40
2018-01-14T03:54:20.074Z,25.17
2018-01-14T03:56:47.761Z,24.87
2018-01-14T03:59:15.620Z,26.70
2018-01-14T04:01:44.100Z,27.10
2018-01-14T04:04:11.845Z,28.07
2018-01-14T04:06:39.520Z,26.87
2018-01-14T04:09:07.194Z,26.77
2018-01-14T04:11:34.875Z,27.10
2018-01-14T04:14:03.336Z,26.50
2018-01-14T04:16:31.027Z,26.80
2018-01-14T04:18:59.491Z,26.97
2018-01-14T04:21:27.360Z,26.47
2018-01-14T04:23:55.056Z,27.30
2018-01-14T04:26:22.753Z,23.87
2018-01-14T04:28:50.454Z,25.20
2018-01-14T04:31:18.077Z,24.27
2018-01-14T04:33:45.743Z,27.00
2018-01-14T04:36:13.427Z,27.80
2018-01-14T04:38:41.099Z,25.43
2018-01-14T04:41:08.777Z,27.40
2018-01-14T04:43:37.240Z,26.77
2018-01-14T04:46:04.923Z,27.67
2018-01-14T04:48:33.361Z,26.77
2018-01-14T04:51:01.153Z,25.73
2018-01-14T04:53:28.844Z,25.67
2018-01-14T04:55:57.267Z,25.20
2018-01-14T04:58:24.985Z,24.27
2018-01-14T05:00:53.383Z,23.70
2018-01-14T05:03:21.017Z,23.40
2018-01-14T05:05:48.703Z,28.00
2018-01-14T05:08:16.356Z,26.37
2018-01-14T05:10:44.814Z,27.20
2018-01-14T05:13:12.496Z,23.83
2018-01-14T05:15:40.905Z,25.40
2018-01-14T05:18:08.563Z,24.57
2018-01-14T05:20:36.472Z,24.27
2018-01-14T05:23:04.149Z,23.00
2018-01-14T05:25:31.853Z,25.10
2018-01-14T05:27:59.552Z,27.17
2018-01-14T05:30:27.157Z,26.10
2018-01-14T05:32:55.909Z,22.50
2018-01-14T05:35:23.602Z,23.13
2018-01-14T05:37:51.196Z,22.67
2018-01-14T05:40:18.807Z,26.47
2018-01-14T05:42:46.520Z,24.50
2018-01-14T05:45:14.184Z,23.87
2018-01-14T05:47:41.849Z,23.33
2018-01-14T05:50:09.709Z,21.10
2018-01-14T05:52:37.349Z,21.40
2018-01-14T05:55:05.825Z,23.60
2018-01-14T05:57:33.528Z,22.57
2018-01-14T06:00:01.247Z,22.50
2018-01-14T06:02:28.943Z,23.70
2018-01-14T06:04:56.588Z,24.03
2018-01-14T06:07:24.351Z,24.00
2018-01-14T06:09:52.760Z,23.50
2018-01-14T06:12:20.454Z,20.07
2018-01-14T06:14:48.151Z,23.30
2018-01-14T06:17:15.845Z,23.57
2018-01-14T06:19:43.765Z,21.63
2018-01-14T06:22:11.473Z,22.50
2018-01-14T06:24:39.930Z,24.50
2018-01-14T06:27:07.594Z,22.53
2018-01-14T06:29:35.285Z,22.97
2018-01-14T06:32:02.984Z,24.13
2018-01-14T06:34:30.704Z,22.50
2018-01-14T06:36:58.383Z,23.70
2018-01-14T06:39:26.054Z,21.80
2018-01-14T06:41:53.726Z,21.73
2018-01-14T06:44:21.402Z,22.57
2018-01-14T06:46:49.036Z,24.37
2018-01-14T06:49:16.695Z,20.67
2018-01-14T06:51:44.368Z,23.03
2018-01-14T06:54:12.066Z,22.30
2018-01-14T06:56:39.706Z,23.43
2018-01-14T06:59:07.402Z,22.50
2018-01-14T07:01:35.082Z,23.43
2018-01-14T07:04:02.791Z,21.17
2018-01-14T07:06:30.442Z,20.17
2018-01-14T07:08:58.123Z,20.33
2018-01-14T07:11:25.900Z,23.23
2018-01-14T07:13:53.614Z,21.93
2018-01-14T07:16:22.065Z,22.30
2018-01-14T07:18:50.838Z,20.53
2018-01-14T07:21:18.515Z,25.33
2018-01-14T07:23:46.201Z,21.97
2018-01-14T07:26:13.849Z,20.70
2018-01-14T07:28:41.561Z,22.70
2018-01-14T07:31:09.224Z,22.17
2018-01-14T07:33:36.920Z,24.67
2018-01-14T07:36:04.611Z,23.63
2018-01-14T07:38:32.288Z,24.63
2018-01-14T07:41:00.003Z,22.30
2018-01-14T07:43:27.693Z,24.07
2018-01-14T07:45:55.384Z,23.43
2018-01-14T07:48:23.082Z,24.70
2018-01-14T07:50:50.786Z,27.27
2018-01-14T07:53:18.461Z,22.73
2018-01-14T07:55:46.159Z,24.60
2018-01-14T07:58:13.825Z,24.07
2018-01-14T08:00:41.534Z,21.87
2018-01-14T08:03:09.218Z,20.87
2018-01-14T08:05:36.884Z,21.10
2018-01-14T08:08:04.571Z,24.93
2018-01-14T08:10:33.183Z,22.13
2018-01-14T08:13:00.901Z,22.77
2018-01-14T08:15:34.989Z,23.50
2018-01-14T08:18:02.672Z,21.77
2018-01-14T08:20:30.329Z,19.97
2018-01-14T08:22:57.986Z,24.20
2018-01-14T08:25:25.645Z,20.40
2018-01-14T08:27:53.315Z,20.77
2018-01-14T08:30:21.301Z,20.87
2018-01-14T08:32:48.963Z,18.20
2018-01-14T08:35:16.608Z,20.17
2018-01-14T08:37:44.412Z,22.47
2018-01-14T08:40:17.605Z,20.80
2018-01-14T08:42:45.268Z,20.67
2018-01-14T08:45:13.734Z,20.67
2018-01-14T08:47:42.275Z,21.43
2018-01-14T08:50:09.972Z,19.20
2018-01-14T08:52:37.665Z,18.93
2018-01-14T08:55:05.344Z,19.93
2018-01-14T08:57:33.057Z,17.23
2018-01-14T09:00:00.803Z,21.93
2018-01-14T09:02:28.463Z,18.20
2018-01-14T09:04:56.183Z,18.20
2018-01-14T09:07:24.013Z,17.37
2018-01-14T09:09:51.701Z,17.73
2018-01-14T09:12:20.163Z,19.53
2018-01-14T09:14:47.837Z,17.93
2018-01-14T09:17:15.510Z,19.30
2018-01-14T09:19:43.961Z,16.63
2018-01-14T09:22:11.635Z,16.77
2018-01-14T09:24:39.357Z,15.30
2018-01-14T09:27:07.039Z,17.17
2018-01-14T09:29:37.068Z,15.27
2018-01-14T09:32:04.727Z,15.43
2018-01-14T09:34:32.411Z,16.60
2018-01-14T09:37:00.095Z,14.87
2018-01-14T09:39:27.778Z,16.97
2018-01-14T09:41:55.454Z,15.60
2018-01-14T09:44:23.141Z,14.87
2018-01-14T09:46:50.828Z,15.57
2018-01-14T09:49:18.500Z,15.73
2018-01-14T09:51:46.171Z,16.57
2018-01-14T09:54:13.904Z,15.23
2018-01-14T09:56:41.555Z,16.00
2018-01-14T09:59:09.254Z,15.50
2018-01-14T10:01:37.723Z,14.80
2018-01-14T10:04:05.584Z,15.00
2018-01-14T10:06:33.249Z,14.83
2018-01-14T10:09:00.945Z,14.20
2018-01-14T10:11:29.430Z,15.03
2018-01-14T10:13:57.103Z,14.70
2018-01-14T10:16:24.784Z,14.50
2018-01-14T10:18:52.433Z,15.43
2018-01-14T10:21:25.970Z,14.03
2018-01-14T10:23:53.679Z,13.33
2018-01-14T10:26:22.177Z,13.17
2018-01-14T10:28:49.881Z,13.87
2018-01-14T10:31:17.546Z,12.30
2018-01-14T10:33:45.223Z,15.70
2018-01-14T10:36:12.918Z,13.57
2018-01-14T10:38:40.564Z,12.73
2018-01-14T10:41:08.250Z,13.97
2018-01-14T10:43:35.925Z,15.73
2018-01-14T10:46:03.638Z,11.73
2018-01-14T10:48:31.270Z,12.27
2018-01-14T10:51:00.089Z,14.50
2018-01-14T10:53:28.711Z,12.03
2018-01-14T10:55:57.145Z,11.47
2018-01-14T10:58:24.816Z,11.83
2018-01-14T11:00:58.445Z,11.87
2018-01-14T11:03:26.925Z,12.60
2018-01-14T11:05:54.616Z,12.23
2018-01-14T11:08:22.270Z,10.97
2018-01-14T11:10:50.174Z,10.77
2018-01-14T11:13:17.846Z,13.07
2018-01-14T11:15:45.548Z,12.17
2018-01-14T11:18:13.192Z,12.17
2018-01-14T11:20:40.907Z,12.50
2018-01-14T11:23:08.542Z,12.93
2018-01-14T11:25:36.982Z,11.07
2018-01-14T11:28:04.670Z,12.33
2018-01-14T11:30:32.336Z,12.33
2018-01-14T11:33:00.032Z,11.17
2018-01-14T11:35:27.836Z,11.23
2018-01-14T11:37:55.517Z,11.13
2018-01-14T11:40:23.355Z,10.97
2018-01-14T11:42:51.030Z,11.00
2018-01-14T11:45:19.481Z,10.63
2018-01-14T11:47:47.162Z,11.07
2018-01-14T11:50:15.612Z,11.37
2018-01-14T11:52:44.078Z,11.97
2018-01-14T11:55:11.788Z,12.03
2018-01-14T11:57:39.452Z,10.83
2018-01-14T12:00:07.103Z,13.60
2018-01-14T12:02:34.793Z,10.60
2018-01-14T12:05:02.467Z,11.80
2018-01-14T12:07:30.156Z,11.47
2018-01-14T12:09:59.953Z,11.20
2018-01-14T12:12:27.635Z,10.93
2018-01-14T12:14:55.305Z,12.87
2018-01-14T12:17:22.999Z,12.50
2018-01-14T12:19:55.327Z,12.63
2018-01-14T12:22:23.218Z,12.97
2018-01-14T12:24:50.933Z,10.67
2018-01-14T12:27:18.902Z,12.37
2018-01-14T12:29:46.690Z,12.80
2018-01-14T12:32:14.393Z,12.00
2018-01-14T12:34:42.105Z,12.50
2018-01-14T12:37:09.789Z,14.13
2018-01-14T12:39:37.787Z,10.80
2018-01-14T12:42:05.457Z,10.97
2018-01-14T12:44:33.123Z,10.23
2018-01-14T12:47:00.781Z,11.23
2018-01-14T12:49:28.447Z,10.97
2018-01-14T12:51:56.083Z,10.10
2018-01-14T12:54:23.718Z,10.90
2018-01-14T12:56:51.430Z,12.10
2018-01-14T12:59:22.009Z,12.60
2018-01-14T13:01:49.707Z,11.73
2018-01-14T13:04:18.114Z,10.53
2018-01-14T13:06:46.213Z,11.13
2018-01-14T13:09:13.869Z,12.17
2018-01-14T13:11:41.497Z,11.37
2018-01-14T13:14:09.114Z,12.33
2018-01-14T13:16:36.739Z,11.57
2018-01-14T13:19:04.435Z,11.50
2018-01-14T13:21:32.125Z,11.90
2018-01-14T13:23:59.799Z,10.73
2018-01-14T13:26:27.442Z,11.00
2018-01-14T13:28:55.109Z,12.33
2018-01-14T13:31:22.779Z,11.23
2018-01-14T13:33:50.459Z,13.50
2018-01-14T13:36:18.129Z,11.23
2018-01-14T13:38:46.561Z,13.10
2018-01-14T13:41:14.253Z,12.93
2018-01-14T13:43:41.949Z,14.90
2018-01-14T13:46:09.662Z,14.37
2018-01-14T13:48:37.350Z,11.50
2018-01-14T13:51:08.096Z,14.67
2018-01-14T13:53:36.562Z,14.13
2018-01-14T13:56:04.237Z,12.30
2018-01-14T13:58:32.721Z,12.53
2018-01-14T14:01:00.420Z,13.03
2018-01-14T14:03:28.033Z,13.00
2018-01-14T14:05:55.693Z,14.57
2018-01-14T14:08:23.369Z,13.57
2018-01-14T14:10:51.849Z,13.40
2018-01-14T14:13:19.526Z,12.67
2018-01-14T14:15:48.010Z,12.30
2018-01-14T14:18:15.684Z,12.67
2018-01-14T14:20:44.344Z,13.13
2018-01-14T14:23:12.014Z,14.43
2018-01-14T14:25:39.664Z,13.43
2018-01-14T14:28:07.342Z,12.17
2018-01-14T14:30:35.815Z,12.10
2018-01-14T14:33:04.251Z,13.13
2018-01-14T14:35:31.901Z,13.53
2018-01-14T14:37:59.589Z,12.60
2018-01-14T14:40:27.282Z,14.53
2018-01-14T14:42:54.978Z,12.30
2018-01-14T14:45:22.667Z,12.47
2018-01-14T14:47:50.347Z,12.90
2018-01-14T14:50:19.133Z,12.23
2018-01-14T14:52:46.786Z,11.53
2018-01-14T14:55:14.465Z,12.93
2018-01-14T14:57:42.147Z,13.03
2018-01-14T15:00:09.843Z,12.60
2018-01-14T15:02:38.290Z,13.47
2018-01-14T15:05:05.974Z,13.17
2018-01-14T15:07:34.421Z,14.37
2018-01-14T15:10:02.086Z,13.17
2018-01-14T15:12:29.797Z,13.33
2018-01-14T15:14:57.483Z,13.20
2018-01-14T15:17:25.145Z,12.07
2018-01-14T15:19:52.842Z,13.20
2018-01-14T15:22:20.553Z,14.87
2018-01-14T15:24:48.249Z,14.27
2018-01-14T15:27:15.924Z,13.80
2018-01-14T15:29:43.614Z,14.27
2018-01-14T15:32:11.299Z,11.73
2018-01-14T15:34:38.980Z,14.83
2018-01-14T15:37:06.662Z,13.60
2018-01-14T15:39:34.346Z,12.50
2018-01-14T15:42:02.058Z,14.13
2018-01-14T15:44:29.668Z,13.63
2018-01-14T15:46:57.278Z,13.17
2018-01-14T15:49:26.110Z,13.80
2018-01-14T15:51:53.807Z,13.87
2018-01-14T15:54:21.528Z,14.63
2018-01-14T15:56:50.025Z,14.43
2018-01-14T15:59:17.627Z,16.30
2018-01-14T16:01:45.292Z,14.90
2018-01-14T16:04:13.749Z,14.27
2018-01-14T16:06:41.426Z,15.57
2018-01-14T16:09:09.084Z,14.93
2018-01-14T16:11:36.784Z,15.80
2018-01-14T16:14:04.459Z,16.23
2018-01-14T16:16:32.121Z,15.90
2018-01-14T16:18:59.820Z,15.60
2018-01-14T16:21:27.431Z,15.90
2018-01-14T16:23:55.076Z,15.97
2018-01-14T16:26:23.514Z,15.00
2018-01-14T16:28:51.149Z,14.90
2018-01-14T16:31:18.858Z,15.27
2018-01-14T16:33:46.541Z,17.53
2018-01-14T16:36:14.229Z,16.40
2018-01-14T16:38:42.693Z,15.37
2018-01-14T16:41:11.322Z,16.03
2018-01-14T16:43:38.995Z,16.33
2018-01-14T16:46:06.603Z,16.80
2018-01-14T16:48:34.255Z,16.17
2018-01-14T16:51:01.981Z,18.27
2018-01-14T16:53:29.675Z,19.50
2018-01-14T16:55:57.374Z,16.63
2018-01-14T16:58:25.060Z,17.77
2018-01-14T17:00:52.756Z,18.57
2018-01-14T17:03:20.460Z,19.73
2018-01-14T17:05:48.126Z,16.87
2018-01-14T17:08:16.502Z,18.03
2018-01-14T17:10:45.073Z,15.67
2018-01-14T17:13:12.688Z,17.30
2018-01-14T17:15:40.356Z,17.23
2018-01-14T17:18:08.044Z,19.50
2018-01-14T17:20:35.718Z,17.43
2018-01-14T17:23:03.398Z,15.13
2018-01-14T17:25:31.043Z,17.10
2018-01-14T17:27:58.752Z,16.90
2018-01-14T17:30:26.477Z,16.67
2018-01-14T17:32:54.181Z,15.67
2018-01-14T17:35:21.892Z,15.10
2018-01-14T17:37:49.547Z,15.10
2018-01-14T17:40:18.369Z,16.60
2018-01-14T17:42:46.039Z,15.70
2018-01-14T17:45:13.747Z,15.43
2018-01-14T17:47:42.232Z,16.80
2018-01-14T17:50:09.891Z,16.00
2018-01-14T17:52:37.601Z,16.27
2018-01-14T17:55:05.268Z,17.27
2018-01-14T17:57:33.020Z,14.27
2018-01-14T18:00:00.728Z,18.93
2018-01-14T18:02:28.440Z,14.87
2018-01-14T18:04:56.096Z,15.37
2018-01-14T18:07:23.746Z,16.70
2018-01-14T18:09:52.368Z,17.40
2018-01-14T18:12:20.034Z,17.30
2018-01-14T18:14:47.728Z,17.93
2018-01-14T18:17:25.174Z,16.77
2018-01-14T18:19:52.848Z,17.67
2018-01-14T18:22:20.576Z,16.23
2018-01-14T18:24:48.293Z,18.10
2018-01-14T18:27:15.937Z,16.27
2018-01-14T18:29:43.882Z,18.80
2018-01-14T18:32:11.573Z,18.27
2018-01-14T18:34:39.306Z,20.77
2018-01-14T18:37:06.992Z,20.47
2018-01-14T18:39:34.649Z,18.23
2018-01-14T18:42:02.354Z,19.73
2018-01-14T18:44:30.052Z,20.00
2018-01-14T18:46:57.919Z,21.67
2018-01-14T18:49:25.787Z,21.20
2018-01-14T18:51:53.459Z,20.93
2018-01-14T18:54:21.111Z,20.67
2018-01-14T18:56:48.810Z,22.57
2018-01-14T18:59:17.445Z,23.23
2018-01-14T19:01:45.121Z,23.03
2018-01-14T19:04:12.806Z,22.93
2018-01-14T19:06:40.625Z,23.03
2018-01-14T19:09:08.476Z,24.37
2018-01-14T19:11:36.137Z,25.27
2018-01-14T19:14:04.204Z,24.90
2018-01-14T19:16:32.058Z,25.50
2018-01-14T19:18:59.774Z,27.83
2018-01-14T19:21:28.697Z,24.33
2018-01-14T19:23:56.402Z,26.67
2018-01-14T19:26:24.885Z,26.53
2018-01-14T19:28:52.554Z,26.23
2018-01-14T19:31:21.658Z,26.00
2018-01-14T19:33:49.613Z,26.43
2018-01-14T19:36:18.069Z,28.40
2018-01-14T19:38:45.820Z,26.27
2018-01-14T19:41:13.615Z,26.87
2018-01-14T19:43:41.273Z,28.33
2018-01-14T19:46:08.986Z,27.87
2018-01-14T19:48:37.143Z,28.43
2018-01-14T19:51:04.963Z,29.37
2018-01-14T19:53:32.650Z,29.03
2018-01-14T19:56:00.342Z,27.93
2018-01-14T19:58:29.164Z,29.30
2018-01-14T20:00:57.113Z,28.10
2018-01-14T20:03:25.578Z,28.83
2018-01-14T20:05:54.154Z,30.73
2018-01-14T20:08:22.650Z,29.60
2018-01-14T20:10:50.328Z,30.73
2018-01-14T20:13:18.060Z,30.97
2018-01-14T20:15:45.710Z,28.53
2018-01-14T20:18:13.308Z,28.13
2018-01-14T20:20:41.186Z,28.97
2018-01-14T20:23:09.710Z,29.40
2018-01-14T20:25:37.948Z,27.43
2018-01-14T20:28:05.793Z,30.63
2018-01-14T20:30:33.696Z,25.13
2018-01-14T20:33:01.392Z,29.87
2018-01-14T20:35:29.225Z,28.93
2018-01-14T20:37:57.915Z,27.97
2018-01-14T20:40:25.590Z,32.33
2018-01-14T20:42:53.333Z,27.47
2018-01-14T20:45:21.216Z,30.13
2018-01-14T20:47:49.303Z,27.73
2018-01-14T20:50:17.253Z,27.80
2018-01-14T20:52:45.029Z,26.60
2018-01-14T20:55:12.751Z,26.20
2018-01-14T20:57:40.421Z,29.30
2018-01-14T21:00:08.456Z,26.73
2018-01-14T21:02:36.296Z,27.33
2018-01-14T21:05:03.989Z,27.53
2018-01-14T21:07:31.664Z,26.97
2018-01-14T21:09:59.574Z,25.10
2018-01-14T21:12:27.507Z,26.43
2018-01-14T21:14:56.015Z,25.03
2018-01-14T21:17:23.708Z,25.93
2018-01-14T21:19:51.950Z,24.20
2018-01-14T21:22:19.757Z,26.40
2018-01-14T21:24:47.467Z,26.30
2018-01-14T21:27:15.381Z,24.97
2018-01-14T21:29:43.193Z,24.30
2018-01-14T21:32:11.033Z,25.63
2018-01-14T21:34:38.817Z,24.40
2018-01-14T21:37:06.765Z,24.43
2018-01-14T21:39:34.727Z,24.77
2018-01-14T21:42:03.106Z,24.23
2018-01-14T21:44:30.818Z,23.20
2018-01-14T21:46:58.514Z,24.87
2018-01-14T21:49:28.196Z,26.73
2018-01-14T21:51:56.815Z,24.60
2018-01-14T21:54:24.496Z,23.20
2018-01-14T21:56:52.435Z,22.20
2018-01-14T21:59:20.168Z,24.23
2018-01-14T22:01:48.107Z,22.53
2018-01-14T22:04:15.808Z,23.70
2018-01-14T22:06:44.268Z,22.87
2018-01-14T22:09:11.980Z,23.67
2018-01-14T22:11:41.136Z,21.77
2018-01-14T22:14:08.828Z,22.00
2018-01-14T22:16:36.564Z,24.27
2018-01-14T22:19:04.216Z,20.83
2018-01-14T22:21:31.889Z,23.43
2018-01-14T22:23:59.901Z,22.07
2018-01-14T22:26:27.580Z,23.13
2018-01-14T22:28:55.227Z,20.80
2018-01-14T22:31:22.921Z,21.17
2018-01-14T22:33:50.606Z,20.33
2018-01-14T22:36:18.438Z,20.63
2018-01-14T22:38:46.423Z,23.80
2018-01-14T22:41:14.345Z,21.53
2018-01-14T22:43:42.081Z,24.10
2018-01-14T22:46:10.839Z,22.50
2018-01-14T22:48:38.516Z,21.70
2018-01-14T22:51:06.175Z,21.07
2018-01-14T22:53:34.342Z,22.30
2018-01-14T22:56:02.058Z,19.50
2018-01-14T22:58:30.534Z,20.50
2018-01-14T23:00:58.251Z,21.20
2018-01-14T23:03:25.930Z,21.30
2018-01-14T23:05:53.748Z,19.43
2018-01-14T23:08:21.518Z,19.37
2018-01-14T23:10:49.545Z,20.73
2018-01-14T23:13:17.558Z,20.07
2018-01-14T23:15:45.541Z,19.93
2018-01-14T23:18:13.498Z,19.67
2018-01-14T23:20:41.160Z,18.67
2018-01-14T23:23:08.845Z,21.10
2018-01-14T23:25:36.534Z,18.50
2018-01-14T23:28:04.244Z,18.63
2018-01-14T23:30:32.753Z,20.00
2018-01-14T23:33:00.499Z,19.33
2018-01-14T23:35:28.466Z,19.00
2018-01-14T23:37:56.340Z,18.50
2018-01-14T23:40:24.365Z,17.93
2018-01-14T23:42:52.058Z,19.13
2018-01-14T23:45:20.522Z,18.17
2018-01-14T23:47:48.324Z,18.70
2018-01-14T23:50:16.301Z,19.07
2018-01-14T23:52:43.993Z,18.70
2018-01-14T23:55:11.849Z,16.87
2018-01-14T23:57:39.966Z,17.30
